createdAt,value
2018-09-27T00:01:04.457Z,102213.34
2018-09-27T00:03:32.605Z,102203.88
2018-09-27T00:06:00.692Z,102214.88
2018-09-27T00:08:28.795Z,102212.87
2018-09-27T00:10:56.888Z,102205.19
2018-09-27T00:13:24.965Z,102207.84
2018-09-27T00:15:53.058Z,102209.23
2018-09-27T00:18:21.177Z,102205.98
2018-09-27T00:20:49.280Z,102208.30
2018-09-27T00:23:17.411Z,102212.57
2018-09-27T00:25:45.502Z,102208.08
2018-09-27T00:28:13.598Z,102211.40
2018-09-27T00:30:41.750Z,102215.91
2018-09-27T00:33:09.836Z,102214.66
2018-09-27T00:35:37.928Z,102213.13
2018-09-27T00:38:06.035Z,102213.79
2018-09-27T00:40:34.106Z,102215.26
2018-09-27T00:43:02.190Z,102221.77
2018-09-27T00:45:38.627Z,102219.70
2018-09-27T00:48:06.717Z,102222.34
2018-09-27T00:50:34.835Z,102217.36
2018-09-27T00:53:02.912Z,102225.19
2018-09-27T00:55:31.016Z,102217.13
2018-09-27T00:57:59.121Z,102226.20
2018-09-27T01:00:27.213Z,102223.10
2018-09-27T01:02:55.374Z,102216.11
2018-09-27T01:05:23.478Z,102225.27
2018-09-27T01:07:51.607Z,102218.28
2018-09-27T01:10:19.774Z,102218.13
2018-09-27T01:12:47.913Z,102215.18
2018-09-27T01:15:16.110Z,102217.36
2018-09-27T01:17:44.223Z,102212.94
2018-09-27T01:20:12.310Z,102220.84
2018-09-27T01:22:40.400Z,102218.75
2018-09-27T01:25:08.593Z,102219.01
2018-09-27T01:27:36.711Z,102221.95
2018-09-27T01:30:05.359Z,102216.42
2018-09-27T01:32:33.461Z,102220.69
2018-09-27T01:35:01.590Z,102215.03
2018-09-27T01:37:29.682Z,102211.93
2018-09-27T01:39:57.803Z,102204.33
2018-09-27T01:42:25.915Z,102208.38
2018-09-27T01:44:54.033Z,102203.64
2018-09-27T01:47:22.879Z,102205.89
2018-09-27T01:49:50.998Z,102208.33
2018-09-27T01:52:19.071Z,102202.56
2018-09-27T01:54:47.198Z,102199.84
2018-09-27T01:57:15.297Z,102207.98
2018-09-27T01:59:43.397Z,102204.81
2018-09-27T02:02:11.500Z,102202.09
2018-09-27T02:04:39.582Z,102202.17
2018-09-27T02:07:07.678Z,102202.33
2018-09-27T02:09:35.765Z,102203.95
2018-09-27T02:12:03.859Z,102202.95
2018-09-27T02:14:31.955Z,102204.34
2018-09-27T02:17:00.061Z,102207.40
2018-09-27T02:19:28.187Z,102208.84
2018-09-27T02:21:56.282Z,102207.52
2018-09-27T02:24:24.396Z,102206.36
2018-09-27T02:26:52.502Z,102206.20
2018-09-27T02:29:20.635Z,102201.55
2018-09-27T02:31:48.746Z,102203.02
2018-09-27T02:34:16.826Z,102201.70
2018-09-27T02:36:44.919Z,102208.84
2018-09-27T02:39:13.018Z,102203.33
2018-09-27T02:41:41.151Z,102200.92
2018-09-27T02:44:09.260Z,102208.22
2018-09-27T02:46:37.370Z,102203.80
2018-09-27T02:49:05.465Z,102199.30
2018-09-27T02:51:33.575Z,102200.16
2018-09-27T02:54:01.695Z,102199.45
2018-09-27T02:56:29.810Z,102203.33
2018-09-27T02:58:57.896Z,102197.13
2018-09-27T03:01:26.008Z,102195.73
2018-09-27T03:03:54.102Z,102199.95
2018-09-27T03:06:22.189Z,102201.12
2018-09-27T03:08:50.270Z,102201.27
2018-09-27T03:11:18.406Z,102204.38
2018-09-27T03:13:46.513Z,102199.92
2018-09-27T03:16:14.576Z,102197.62
2018-09-27T03:18:42.676Z,102200.92
2018-09-27T03:21:10.778Z,102195.73
2018-09-27T03:23:39.014Z,102200.63
2018-09-27T03:26:07.099Z,102193.41
2018-09-27T03:28:35.189Z,102193.56
2018-09-27T03:31:03.265Z,102195.50
2018-09-27T03:33:31.396Z,102198.98
2018-09-27T03:35:59.508Z,102198.52
2018-09-27T03:38:27.599Z,102195.97
2018-09-27T03:40:55.702Z,102193.91
2018-09-27T03:43:23.788Z,102194.72
2018-09-27T03:45:51.859Z,102202.09
2018-09-27T03:48:19.963Z,102194.02
2018-09-27T03:50:48.046Z,102196.89
2018-09-27T03:53:16.164Z,102184.17
2018-09-27T03:55:44.262Z,102188.01
2018-09-27T03:58:12.366Z,102190.77
2018-09-27T04:00:40.453Z,102180.61
2018-09-27T04:03:08.596Z,102175.18
2018-09-27T04:05:36.664Z,102173.70
2018-09-27T04:08:04.831Z,102173.32
2018-09-27T04:10:32.941Z,102175.29
2018-09-27T04:13:01.276Z,102172.31
2018-09-27T04:15:29.390Z,102177.35
2018-09-27T04:17:57.466Z,102167.66
2018-09-27T04:20:25.547Z,102171.06
2018-09-27T04:22:53.639Z,102168.59
2018-09-27T04:25:21.748Z,102173.24
2018-09-27T04:27:49.936Z,102179.84
2018-09-27T04:30:18.046Z,102176.73
2018-09-27T04:32:46.147Z,102176.73
2018-09-27T04:35:14.218Z,102173.86
2018-09-27T04:37:42.313Z,102175.56
2018-09-27T04:40:10.420Z,102176.37
2018-09-27T04:42:38.497Z,102177.81
2018-09-27T04:45:06.587Z,102174.12
2018-09-27T04:47:34.681Z,102177.27
2018-09-27T04:50:02.769Z,102176.97
2018-09-27T04:52:30.842Z,102178.13
2018-09-27T04:54:58.959Z,102182.63
2018-09-27T04:57:27.444Z,102187.20
2018-09-27T04:59:55.611Z,102184.02
2018-09-27T05:02:23.680Z,102188.62
2018-09-27T05:04:51.796Z,102188.20
2018-09-27T05:07:19.898Z,102190.77
2018-09-27T05:09:47.989Z,102187.97
2018-09-27T05:12:16.075Z,102193.16
2018-09-27T05:14:44.184Z,102195.87
2018-09-27T05:17:12.298Z,102193.80
2018-09-27T05:19:40.400Z,102197.19
2018-09-27T05:22:08.503Z,102205.41
2018-09-27T05:24:36.610Z,102198.44
2018-09-27T05:27:04.703Z,102196.97
2018-09-27T05:29:32.780Z,102195.44
2018-09-27T05:32:00.864Z,102190.71
2018-09-27T05:34:28.964Z,102190.79
2018-09-27T05:36:57.064Z,102190.86
2018-09-27T05:39:25.186Z,102194.04
2018-09-27T05:41:53.250Z,102195.36
2018-09-27T05:44:21.342Z,102205.12
2018-09-27T05:46:50.075Z,102202.31
2018-09-27T05:49:18.216Z,102204.26
2018-09-27T05:51:46.312Z,102204.82
2018-09-27T05:54:14.438Z,102208.12
2018-09-27T05:56:42.528Z,102202.71
2018-09-27T05:59:10.652Z,102206.53
2018-09-27T06:01:38.715Z,102201.61
2018-09-27T06:04:06.811Z,102204.58
2018-09-27T06:06:34.934Z,102195.05
2018-09-27T06:09:03.119Z,102186.66
2018-09-27T06:11:31.288Z,102192.39
2018-09-27T06:13:59.351Z,102191.08
2018-09-27T06:16:27.463Z,102189.84
2018-09-27T06:18:55.559Z,102191.70
2018-09-27T06:21:29.451Z,102187.06
2018-09-27T06:23:57.532Z,102189.84
2018-09-27T06:26:25.721Z,102194.73
2018-09-27T06:28:53.802Z,102195.75
2018-09-27T06:31:21.902Z,102191.72
2018-09-27T06:33:50.023Z,102204.96
2018-09-27T06:36:18.132Z,102192.72
2018-09-27T06:38:46.249Z,102190.63
2018-09-27T06:41:14.339Z,102196.59
2018-09-27T06:43:42.504Z,102196.91
2018-09-27T06:46:10.614Z,102196.06
2018-09-27T06:48:38.733Z,102192.70
2018-09-27T06:51:06.524Z,102192.03
2018-09-27T06:53:34.668Z,102192.41
2018-09-27T06:56:02.831Z,102186.59
2018-09-27T06:58:30.868Z,102192.63
2018-09-27T07:00:59.310Z,102194.33
2018-09-27T07:03:27.348Z,102191.50
2018-09-27T07:05:55.435Z,102192.01
2018-09-27T07:08:23.578Z,102182.86
2018-09-27T07:10:51.619Z,102180.84
2018-09-27T07:13:19.692Z,102187.44
2018-09-27T07:15:47.797Z,102183.41
2018-09-27T07:18:15.897Z,102186.58
2018-09-27T07:20:44.030Z,102193.41
2018-09-27T07:23:12.128Z,102195.41
2018-09-27T07:25:40.322Z,102196.42
2018-09-27T07:28:08.395Z,102202.19
2018-09-27T07:30:36.490Z,102201.31
2018-09-27T07:33:04.607Z,102204.33
2018-09-27T07:35:32.671Z,102196.97
2018-09-27T07:38:00.771Z,102201.17
2018-09-27T07:40:28.954Z,102201.78
2018-09-27T07:42:57.045Z,102198.45
2018-09-27T07:45:25.147Z,102204.46
2018-09-27T07:47:53.284Z,102201.62
2018-09-27T07:50:21.471Z,102206.13
2018-09-27T07:52:49.537Z,102211.20
2018-09-27T07:55:17.615Z,102210.00
2018-09-27T07:57:45.726Z,102214.42
2018-09-27T08:00:13.859Z,102207.20
2018-09-27T08:02:42.061Z,102208.98
2018-09-27T08:05:10.059Z,102217.13
2018-09-27T08:07:38.183Z,102223.44
2018-09-27T08:10:06.283Z,102220.70
2018-09-27T08:12:34.361Z,102218.09
2018-09-27T08:15:02.447Z,102223.70
2018-09-27T08:17:30.655Z,102223.13
2018-09-27T08:19:58.751Z,102225.67
2018-09-27T08:22:26.850Z,102213.96
2018-09-27T08:24:54.962Z,102218.14
2018-09-27T08:27:23.077Z,102214.88
2018-09-27T08:29:51.320Z,102213.50
2018-09-27T08:32:19.409Z,102208.34
2018-09-27T08:34:47.491Z,102210.97
2018-09-27T08:37:15.569Z,102207.34
2018-09-27T08:39:43.639Z,102206.87
2018-09-27T08:42:11.736Z,102214.51
2018-09-27T08:44:39.911Z,102210.22
2018-09-27T08:47:07.974Z,102208.36
2018-09-27T08:49:36.106Z,102207.39
2018-09-27T08:52:04.207Z,102205.19
2018-09-27T08:54:32.321Z,102204.45
2018-09-27T08:57:03.819Z,102200.28
2018-09-27T08:59:31.912Z,102199.12
2018-09-27T09:02:00.016Z,102195.55
2018-09-27T09:04:28.145Z,102191.05
2018-09-27T09:06:56.195Z,102189.34
2018-09-27T09:09:24.334Z,102190.19
2018-09-27T09:11:52.410Z,102183.63
2018-09-27T09:14:20.513Z,102181.44
2018-09-27T09:16:48.613Z,102185.84
2018-09-27T09:19:16.710Z,102179.56
2018-09-27T09:21:44.844Z,102187.62
2018-09-27T09:24:12.887Z,102181.53
2018-09-27T09:26:40.958Z,102174.88
2018-09-27T09:29:09.035Z,102183.57
2018-09-27T09:31:37.131Z,102173.53
2018-09-27T09:34:05.250Z,102170.13
2018-09-27T09:36:33.323Z,102166.75
2018-09-27T09:39:01.408Z,102160.53
2018-09-27T09:41:29.494Z,102152.59
2018-09-27T09:43:57.566Z,102157.96
2018-09-27T09:46:25.651Z,102157.59
2018-09-27T09:48:53.774Z,102152.61
2018-09-27T09:51:21.903Z,102147.23
2018-09-27T09:53:49.994Z,102144.61
2018-09-27T09:56:18.106Z,102137.23
2018-09-27T09:58:46.183Z,102138.03
2018-09-27T10:01:14.299Z,102133.86
2018-09-27T10:03:43.418Z,102136.59
2018-09-27T10:06:11.600Z,102136.25
2018-09-27T10:08:39.723Z,102129.39
2018-09-27T10:11:07.943Z,102130.16
2018-09-27T10:13:36.092Z,102122.57
2018-09-27T10:16:04.304Z,102129.06
2018-09-27T10:18:32.387Z,102116.70
2018-09-27T10:21:00.539Z,102111.68
2018-09-27T10:23:28.639Z,102107.12
2018-09-27T10:25:56.739Z,102104.69
2018-09-27T10:28:24.815Z,102102.82
2018-09-27T10:30:53.010Z,102102.86
2018-09-27T10:33:21.234Z,102102.73
2018-09-27T10:35:49.484Z,102095.25
2018-09-27T10:38:17.596Z,102087.45
2018-09-27T10:40:45.735Z,102094.61
2018-09-27T10:43:13.839Z,102084.48
2018-09-27T10:45:41.984Z,102085.34
2018-09-27T10:48:10.106Z,102076.07
2018-09-27T10:50:38.212Z,102080.41
2018-09-27T10:53:06.847Z,102076.19
2018-09-27T10:55:35.003Z,102073.44
2018-09-27T10:58:03.104Z,102074.33
2018-09-27T11:00:31.215Z,102068.02
2018-09-27T11:02:59.286Z,102068.22
2018-09-27T11:05:27.510Z,102067.75
2018-09-27T11:07:55.489Z,102066.03
2018-09-27T11:10:23.591Z,102063.13
2018-09-27T11:12:51.703Z,102055.33
2018-09-27T11:15:19.840Z,102052.29
2018-09-27T11:17:47.956Z,102038.39
2018-09-27T11:20:16.042Z,102045.53
2018-09-27T11:22:44.161Z,102036.94
2018-09-27T11:25:12.262Z,102029.97
2018-09-27T11:27:40.451Z,102029.97
2018-09-27T11:30:14.021Z,102029.31
2018-09-27T11:32:45.000Z,102021.62
2018-09-27T11:35:13.479Z,102012.78
2018-09-27T11:37:41.604Z,102011.61
2018-09-27T11:40:10.463Z,101999.87
2018-09-27T11:42:38.901Z,101994.81
2018-09-27T11:45:07.550Z,101988.16
2018-09-27T11:47:35.651Z,101990.70
2018-09-27T11:50:03.886Z,101983.09
2018-09-27T11:52:31.867Z,101975.58
2018-09-27T11:54:59.975Z,101973.27
2018-09-27T11:57:28.065Z,101972.17
2018-09-27T11:59:56.200Z,101969.54
2018-09-27T12:02:24.283Z,101968.95
2018-09-27T12:04:52.479Z,101961.43
2018-09-27T12:07:20.622Z,101964.54
2018-09-27T12:09:48.766Z,101972.77
2018-09-27T12:12:18.007Z,101970.25
2018-09-27T12:14:46.122Z,101957.53
2018-09-27T12:17:14.223Z,101955.95
2018-09-27T12:19:42.420Z,101955.10
2018-09-27T12:22:10.532Z,101949.72
2018-09-27T12:24:38.671Z,101952.16
2018-09-27T12:27:06.807Z,101937.03
2018-09-27T12:29:34.924Z,101940.54
2018-09-27T12:32:03.034Z,101932.69
2018-09-27T12:34:31.149Z,101937.19
2018-09-27T12:36:59.295Z,101931.14
2018-09-27T12:39:33.807Z,101924.39
2018-09-27T12:42:02.018Z,101920.00
2018-09-27T12:44:30.037Z,101913.99
2018-09-27T12:46:58.245Z,101909.91
2018-09-27T12:49:26.396Z,101898.58
2018-09-27T12:51:55.593Z,101899.09
2018-09-27T12:54:23.658Z,101899.96
2018-09-27T12:56:51.775Z,101897.09
2018-09-27T12:59:19.876Z,101889.84
2018-09-27T13:01:48.095Z,101891.37
2018-09-27T13:04:16.115Z,101892.83
2018-09-27T13:06:44.251Z,101886.42
2018-09-27T13:09:12.455Z,101884.39
2018-09-27T13:11:40.770Z,101885.88
2018-09-27T13:14:08.675Z,101884.53
2018-09-27T13:16:36.787Z,101871.50
2018-09-27T13:19:04.962Z,101867.59
2018-09-27T13:21:33.295Z,101865.55
2018-09-27T13:24:01.237Z,101862.28
2018-09-27T13:26:29.443Z,101860.81
2018-09-27T13:28:57.516Z,101857.22
2018-09-27T13:31:25.673Z,101853.25
2018-09-27T13:33:53.836Z,101848.33
2018-09-27T13:36:21.971Z,101851.53
2018-09-27T13:38:50.178Z,101848.88
2018-09-27T13:41:18.287Z,101844.50
2018-09-27T13:43:46.443Z,101842.91
2018-09-27T13:46:14.596Z,101839.63
2018-09-27T13:48:42.724Z,101837.57
2018-09-27T13:51:10.840Z,101830.95
2018-09-27T13:53:39.580Z,101827.06
2018-09-27T13:56:07.696Z,101830.33
2018-09-27T13:58:35.854Z,101827.69
2018-09-27T14:01:04.023Z,101823.83
2018-09-27T14:03:32.133Z,101812.70
2018-09-27T14:06:00.259Z,101814.77
2018-09-27T14:08:28.359Z,101809.81
2018-09-27T14:10:56.483Z,101809.31
2018-09-27T14:13:24.615Z,101807.52
2018-09-27T14:15:52.727Z,101804.63
2018-09-27T14:18:20.863Z,101803.30
2018-09-27T14:20:50.133Z,101803.16
2018-09-27T14:23:18.287Z,101798.47
2018-09-27T14:25:46.459Z,101793.14
2018-09-27T14:28:14.514Z,101795.81
2018-09-27T14:30:42.679Z,101786.98
2018-09-27T14:33:10.725Z,101789.77
2018-09-27T14:35:38.872Z,101782.05
2018-09-27T14:38:06.944Z,101783.61
2018-09-27T14:40:35.078Z,101779.51
2018-09-27T14:43:03.200Z,101779.72
2018-09-27T14:45:31.371Z,101772.13
2018-09-27T14:47:59.661Z,101774.44
2018-09-27T14:50:27.605Z,101772.50
2018-09-27T14:52:55.687Z,101765.97
2018-09-27T14:55:23.815Z,101761.75
2018-09-27T14:57:51.944Z,101761.52
2018-09-27T15:00:20.064Z,101761.62
2018-09-27T15:02:48.183Z,101765.12
2018-09-27T15:05:16.317Z,101758.71
2018-09-27T15:07:44.779Z,101755.92
2018-09-27T15:10:12.924Z,101760.14
2018-09-27T15:12:41.218Z,101756.41
2018-09-27T15:15:10.196Z,101751.96
2018-09-27T15:17:38.927Z,101748.45
2018-09-27T15:20:07.129Z,101750.25
2018-09-27T15:22:35.356Z,101742.05
2018-09-27T15:25:03.491Z,101740.61
2018-09-27T15:27:31.615Z,101742.53
2018-09-27T15:29:59.712Z,101739.03
2018-09-27T15:32:27.788Z,101740.61
2018-09-27T15:34:55.899Z,101725.03
2018-09-27T15:37:24.040Z,101735.05
2018-09-27T15:39:52.180Z,101727.45
2018-09-27T15:42:20.331Z,101729.27
2018-09-27T15:44:48.443Z,101722.64
2018-09-27T15:47:16.532Z,101721.31
2018-09-27T15:49:44.635Z,101716.36
2018-09-27T15:52:12.793Z,101718.88
2018-09-27T15:54:40.924Z,101718.52
2018-09-27T15:57:09.056Z,101705.11
2018-09-27T15:59:37.147Z,101706.20
2018-09-27T16:02:14.409Z,101701.63
2018-09-27T16:04:43.258Z,101695.88
2018-09-27T16:07:11.346Z,101694.72
2018-09-27T16:09:39.475Z,101695.57
2018-09-27T16:12:07.706Z,101687.97
2018-09-27T16:14:36.226Z,101680.99
2018-09-27T16:17:04.299Z,101679.59
2018-09-27T16:19:32.459Z,101681.78
2018-09-27T16:22:00.584Z,101686.47
2018-09-27T16:24:28.659Z,101679.95
2018-09-27T16:26:56.791Z,101675.84
2018-09-27T16:29:24.929Z,101670.55
2018-09-27T16:31:52.958Z,101669.00
2018-09-27T16:34:21.063Z,101660.66
2018-09-27T16:36:49.182Z,101662.46
2018-09-27T16:39:17.285Z,101658.94
2018-09-27T16:41:45.487Z,101654.12
2018-09-27T16:44:13.579Z,101656.79
2018-09-27T16:46:41.753Z,101660.29
2018-09-27T16:49:09.828Z,101668.22
2018-09-27T16:51:37.915Z,101666.65
2018-09-27T16:54:06.066Z,101662.42
2018-09-27T16:56:34.208Z,101664.66
2018-09-27T16:59:02.318Z,101657.66
2018-09-27T17:01:30.413Z,101653.58
2018-09-27T17:03:58.540Z,101653.09
2018-09-27T17:06:26.654Z,101656.12
2018-09-27T17:08:54.783Z,101651.43
2018-09-27T17:11:22.872Z,101652.30
2018-09-27T17:13:50.966Z,101651.91
2018-09-27T17:16:19.057Z,101652.75
2018-09-27T17:18:47.397Z,101646.70
2018-09-27T17:21:15.494Z,101643.56
2018-09-27T17:23:43.995Z,101641.96
2018-09-27T17:26:11.887Z,101643.25
2018-09-27T17:28:40.009Z,101640.86
2018-09-27T17:31:08.499Z,101640.02
2018-09-27T17:33:36.611Z,101632.31
2018-09-27T17:36:04.722Z,101632.91
2018-09-27T17:38:32.802Z,101637.36
2018-09-27T17:41:03.578Z,101634.83
2018-09-27T17:43:31.679Z,101634.31
2018-09-27T17:45:59.777Z,101625.38
2018-09-27T17:48:27.879Z,101625.38
2018-09-27T17:50:55.983Z,101625.81
2018-09-27T17:53:24.240Z,101626.55
2018-09-27T17:55:52.315Z,101630.42
2018-09-27T17:58:20.461Z,101626.92
2018-09-27T18:00:48.567Z,101623.10
2018-09-27T18:03:16.660Z,101624.86
2018-09-27T18:05:44.818Z,101622.80
2018-09-27T18:08:12.920Z,101616.77
2018-09-27T18:10:41.038Z,101613.70
2018-09-27T18:13:09.135Z,101612.44
2018-09-27T18:15:37.263Z,101617.44
2018-09-27T18:18:05.383Z,101616.89
2018-09-27T18:20:33.495Z,101614.72
2018-09-27T18:23:01.641Z,101606.58
2018-09-27T18:25:29.778Z,101611.11
2018-09-27T18:27:57.859Z,101605.02
2018-09-27T18:30:25.926Z,101605.92
2018-09-27T18:32:54.058Z,101607.20
2018-09-27T18:35:22.212Z,101601.99
2018-09-27T18:37:50.379Z,101604.66
2018-09-27T18:40:18.457Z,101607.69
2018-09-27T18:42:46.508Z,101601.23
2018-09-27T18:45:14.647Z,101593.81
2018-09-27T18:47:42.743Z,101597.17
2018-09-27T18:50:11.097Z,101588.50
2018-09-27T18:52:39.190Z,101588.77
2018-09-27T18:55:07.642Z,101589.47
2018-09-27T18:57:35.783Z,101583.21
2018-09-27T19:00:03.949Z,101579.08
2018-09-27T19:02:32.039Z,101578.81
2018-09-27T19:05:00.165Z,101572.67
2018-09-27T19:07:28.215Z,101570.44
2018-09-27T19:10:59.618Z,101567.70
2018-09-27T19:13:27.670Z,101563.67
2018-09-27T19:15:55.723Z,101565.69
2018-09-27T19:18:23.774Z,101558.84
2018-09-27T19:20:52.225Z,101554.44
2018-09-27T19:23:20.288Z,101553.22
2018-09-27T19:25:48.372Z,101547.63
2018-09-27T19:28:16.577Z,101547.41
2018-09-27T19:30:44.602Z,101550.45
2018-09-27T19:33:12.676Z,101537.16
2018-09-27T19:35:40.835Z,101536.23
2018-09-27T19:38:08.884Z,101532.94
2018-09-27T19:40:36.932Z,101528.18
2018-09-27T19:43:05.206Z,101520.09
2018-09-27T19:45:33.279Z,101521.99
2018-09-27T19:48:01.335Z,101520.00
2018-09-27T19:50:29.599Z,101516.05
2018-09-27T19:52:57.682Z,101514.73
2018-09-27T19:55:26.029Z,101515.10
2018-09-27T19:57:54.108Z,101513.69
2018-09-27T20:00:22.155Z,101510.39
2018-09-27T20:02:50.215Z,101503.05
2018-09-27T20:05:18.278Z,101499.06
2018-09-27T20:07:46.364Z,101491.81
2018-09-27T20:10:14.494Z,101501.70
2018-09-27T20:12:42.531Z,101490.77
2018-09-27T20:15:10.626Z,101491.42
2018-09-27T20:17:38.662Z,101494.12
2018-09-27T20:20:06.739Z,101493.80
2018-09-27T20:22:34.886Z,101484.51
2018-09-27T20:25:02.886Z,101481.88
2018-09-27T20:27:30.996Z,101485.17
2018-09-27T20:29:59.067Z,101479.33
2018-09-27T20:32:27.142Z,101478.68
2018-09-27T20:34:55.293Z,101476.04
2018-09-27T20:37:23.288Z,101470.18
2018-09-27T20:39:51.371Z,101462.85
2018-09-27T20:42:19.420Z,101460.25
2018-09-27T20:44:47.482Z,101456.09
2018-09-27T20:47:15.555Z,101462.30
2018-09-27T20:49:43.680Z,101452.20
2018-09-27T20:52:11.761Z,101450.05
2018-09-27T20:54:39.879Z,101440.15
2018-09-27T20:57:08.270Z,101450.60
2018-09-27T20:59:36.346Z,101453.89
2018-09-27T21:02:04.443Z,101457.09
2018-09-27T21:04:32.515Z,101457.02
2018-09-27T21:07:00.597Z,101453.66
2018-09-27T21:09:28.675Z,101457.98
2018-09-27T21:11:56.710Z,101460.10
2018-09-27T21:14:24.875Z,101456.86
2018-09-27T21:16:52.948Z,101454.08
2018-09-27T21:19:21.030Z,101445.70
2018-09-27T21:21:49.088Z,101448.91
2018-09-27T21:24:17.180Z,101445.53
2018-09-27T21:26:45.235Z,101449.77
2018-09-27T21:29:13.342Z,101443.80
2018-09-27T21:31:41.448Z,101443.23
2018-09-27T21:34:09.525Z,101439.92
2018-09-27T21:36:37.588Z,101444.25
2018-09-27T21:39:06.601Z,101440.83
2018-09-27T21:41:34.668Z,101433.84
2018-09-27T21:44:02.942Z,101435.36
2018-09-27T21:46:31.011Z,101435.26
2018-09-27T21:48:59.063Z,101438.07
2018-09-27T21:51:27.126Z,101437.58
2018-09-27T21:53:55.204Z,101437.80
2018-09-27T21:56:23.302Z,101443.34
2018-09-27T21:58:51.363Z,101447.71
2018-09-27T22:01:19.439Z,101446.29
2018-09-27T22:03:47.531Z,101448.75
2018-09-27T22:06:15.607Z,101448.08
2018-09-27T22:08:43.735Z,101443.48
2018-09-27T22:11:12.024Z,101444.15
2018-09-27T22:13:40.103Z,101447.49
2018-09-27T22:16:08.178Z,101444.28
2018-09-27T22:18:36.648Z,101447.86
2018-09-27T22:21:04.762Z,101441.95
2018-09-27T22:23:32.819Z,101448.95
2018-09-27T22:26:00.959Z,101455.05
2018-09-27T22:28:29.093Z,101451.54
2018-09-27T22:30:57.115Z,101452.95
2018-09-27T22:33:25.211Z,101451.81
2018-09-27T22:35:53.319Z,101439.13
2018-09-27T22:38:21.424Z,101441.05
2018-09-27T22:40:49.503Z,101440.67
2018-09-27T22:43:17.663Z,101443.75
2018-09-27T22:45:45.742Z,101437.69
2018-09-27T22:48:13.782Z,101445.59
2018-09-27T22:50:41.870Z,101447.09
2018-09-27T22:53:09.970Z,101448.70
2018-09-27T22:55:38.064Z,101443.33
2018-09-27T22:58:06.163Z,101453.50
2018-09-27T23:00:34.275Z,101455.00
2018-09-27T23:03:02.323Z,101455.47
2018-09-27T23:05:30.399Z,101456.36
2018-09-27T23:07:58.490Z,101463.96
2018-09-27T23:10:26.571Z,101462.73
2018-09-27T23:12:54.666Z,101465.00
2018-09-27T23:15:22.747Z,101464.44
2018-09-27T23:17:50.799Z,101467.91
2018-09-27T23:20:18.859Z,101464.75
2018-09-27T23:22:46.918Z,101464.84
2018-09-27T23:25:14.991Z,101465.78
2018-09-27T23:27:43.103Z,101463.33
2018-09-27T23:30:11.202Z,101469.92
2018-09-27T23:32:39.254Z,101469.73
2018-09-27T23:35:07.483Z,101470.11
2018-09-27T23:37:35.734Z,101471.42
2018-09-27T23:40:03.916Z,101473.97
2018-09-27T23:42:31.999Z,101470.86
2018-09-27T23:45:00.067Z,101470.86
2018-09-27T23:47:28.139Z,101474.63
2018-09-27T23:49:57.026Z,101467.84
2018-09-27T23:52:25.116Z,101471.80
2018-09-27T23:54:53.402Z,101471.81
2018-09-27T23:57:21.470Z,101473.23
2018-09-27T23:59:49.567Z,101478.31
